createdAt,value
2019-05-05T00:00:17.048Z,72.88
2019-05-05T00:01:22.368Z,72.88
2019-05-05T00:02:34.224Z,72.89
2019-05-05T00:03:39.430Z,72.90
2019-05-05T00:05:02.262Z,72.88
2019-05-05T00:06:07.591Z,73.07
2019-05-05T00:07:11.164Z,73.04
2019-05-05T00:08:15.234Z,73.08
2019-05-05T00:09:18.905Z,73.03
2019-05-05T00:10:40.261Z,73.21
2019-05-05T00:11:45.333Z,73.34
2019-05-05T00:12:55.071Z,73.41
2019-05-05T00:14:04.718Z,73.45
2019-05-05T00:15:28.161Z,73.62
2019-05-05T00:16:44.379Z,73.76
2019-05-05T00:17:47.333Z,73.93
2019-05-05T00:18:50.939Z,73.99
2019-05-05T00:19:54.961Z,74.12
2019-05-05T00:20:58.489Z,74.19
2019-05-05T00:22:01.949Z,74.11
2019-05-05T00:23:05.522Z,74.22
2019-05-05T00:24:09.207Z,74.14
2019-05-05T00:25:14.293Z,74.03
2019-05-05T00:26:17.812Z,74.04
2019-05-05T00:27:21.267Z,74.14
2019-05-05T00:28:25.018Z,74.10
2019-05-05T00:29:28.404Z,74.11
2019-05-05T00:30:31.865Z,74.17
2019-05-05T00:31:35.456Z,74.10
2019-05-05T00:32:38.880Z,73.92
2019-05-05T00:33:42.373Z,73.79
2019-05-05T00:34:45.947Z,73.81
2019-05-05T00:35:49.449Z,73.90
2019-05-05T00:36:55.043Z,73.84
2019-05-05T00:37:58.118Z,73.83
2019-05-05T00:39:04.231Z,74.04
2019-05-05T00:40:07.581Z,74.06
2019-05-05T00:41:11.088Z,73.96
2019-05-05T00:42:15.503Z,74.10
2019-05-05T00:43:19.006Z,74.11
2019-05-05T00:44:24.610Z,74.04
2019-05-05T00:45:28.814Z,74.22
2019-05-05T00:46:49.092Z,74.19
2019-05-05T00:47:54.519Z,74.20
2019-05-05T00:48:57.957Z,74.14
2019-05-05T00:50:01.554Z,74.16
2019-05-05T00:51:05.049Z,74.54
2019-05-05T00:52:08.504Z,74.65
2019-05-05T00:53:11.923Z,74.64
2019-05-05T00:54:15.499Z,74.67
2019-05-05T00:55:19.166Z,74.72
2019-05-05T00:56:22.592Z,74.79
2019-05-05T00:57:26.042Z,74.65
2019-05-05T00:58:30.955Z,74.51
2019-05-05T00:59:34.866Z,74.43
2019-05-05T01:00:52.056Z,74.36
2019-05-05T01:01:57.113Z,74.29
2019-05-05T01:03:00.586Z,74.21
2019-05-05T01:04:05.217Z,74.37
2019-05-05T01:05:16.529Z,74.30
2019-05-05T01:06:21.896Z,74.19
2019-05-05T01:07:25.405Z,74.10
2019-05-05T01:08:31.779Z,74.06
2019-05-05T01:09:35.640Z,74.16
2019-05-05T01:10:39.138Z,74.41
2019-05-05T01:11:44.613Z,74.43
2019-05-05T01:12:48.208Z,74.41
2019-05-05T01:13:51.768Z,74.37
2019-05-05T01:14:55.411Z,74.45
2019-05-05T01:15:58.988Z,74.52
2019-05-05T01:17:02.408Z,74.64
2019-05-05T01:18:05.916Z,74.72
2019-05-05T01:19:09.349Z,74.78
2019-05-05T01:20:14.667Z,74.66
2019-05-05T01:21:18.280Z,74.68
2019-05-05T01:22:21.849Z,74.58
2019-05-05T01:23:25.438Z,74.55
2019-05-05T01:24:28.882Z,74.52
2019-05-05T01:25:34.578Z,74.59
2019-05-05T01:26:37.683Z,74.71
2019-05-05T01:27:41.188Z,74.80
2019-05-05T01:28:44.845Z,74.67
2019-05-05T01:29:48.376Z,74.53
2019-05-05T01:30:54.996Z,74.62
2019-05-05T01:31:59.653Z,74.57
2019-05-05T01:33:07.228Z,74.44
2019-05-05T01:34:18.372Z,74.36
2019-05-05T01:35:21.872Z,74.43
2019-05-05T01:36:25.301Z,74.53
2019-05-05T01:37:46.335Z,74.71
2019-05-05T01:39:07.790Z,74.85
2019-05-05T01:40:16.453Z,74.87
2019-05-05T01:41:27.554Z,74.79
2019-05-05T01:42:31.062Z,74.62
2019-05-05T01:43:34.719Z,74.65
2019-05-05T01:44:38.155Z,74.66
2019-05-05T01:45:41.658Z,74.58
2019-05-05T01:46:45.158Z,74.46
2019-05-05T01:47:48.588Z,74.45
2019-05-05T01:48:52.183Z,74.46
2019-05-05T01:49:55.740Z,74.47
2019-05-05T01:50:59.310Z,74.48
2019-05-05T01:52:04.334Z,74.31
2019-05-05T01:53:07.916Z,74.23
2019-05-05T01:54:11.430Z,74.20
2019-05-05T01:55:15.012Z,74.11
2019-05-05T01:56:18.972Z,74.15
2019-05-05T01:57:22.543Z,74.32
2019-05-05T01:58:26.531Z,74.42
2019-05-05T01:59:30.115Z,74.55
2019-05-05T02:00:34.827Z,74.70
2019-05-05T02:01:38.629Z,74.77
2019-05-05T02:02:42.421Z,74.69
2019-05-05T02:03:46.478Z,74.53
2019-05-05T02:04:50.153Z,74.41
2019-05-05T02:05:54.575Z,74.28
2019-05-05T02:06:58.219Z,74.29
2019-05-05T02:08:01.714Z,74.30
2019-05-05T02:09:06.768Z,74.37
2019-05-05T02:10:11.443Z,74.33
2019-05-05T02:11:15.617Z,74.26
2019-05-05T02:12:19.287Z,74.16
2019-05-05T02:13:22.791Z,74.13
2019-05-05T02:14:26.382Z,74.13
2019-05-05T02:15:29.957Z,74.05
2019-05-05T02:16:34.739Z,74.01
2019-05-05T02:17:38.365Z,74.06
2019-05-05T02:18:41.928Z,74.07
2019-05-05T02:19:45.537Z,74.10
2019-05-05T02:20:54.949Z,74.09
2019-05-05T02:21:58.504Z,74.25
2019-05-05T02:23:02.076Z,74.42
2019-05-05T02:24:05.647Z,74.56
2019-05-05T02:25:09.238Z,74.63
2019-05-05T02:26:14.727Z,74.84
2019-05-05T02:27:19.877Z,75.18
2019-05-05T02:28:24.675Z,75.19
2019-05-05T02:29:38.860Z,75.03
2019-05-05T02:30:47.470Z,74.76
2019-05-05T02:32:08.488Z,74.83
2019-05-05T02:33:15.689Z,74.99
2019-05-05T02:34:18.996Z,75.05
2019-05-05T02:35:22.444Z,74.95
2019-05-05T02:36:26.020Z,74.91
2019-05-05T02:37:29.600Z,74.88
2019-05-05T02:38:35.526Z,74.83
2019-05-05T02:39:45.080Z,74.70
2019-05-05T02:40:45.186Z,74.57
2019-05-05T02:41:49.250Z,74.52
2019-05-05T02:42:54.902Z,74.40
2019-05-05T02:43:58.610Z,74.30
2019-05-05T02:45:05.667Z,74.19
2019-05-05T02:46:30.136Z,74.09
2019-05-05T02:47:47.039Z,73.97
2019-05-05T02:48:55.085Z,74.05
2019-05-05T02:50:01.507Z,73.97
2019-05-05T02:51:06.940Z,74.03
2019-05-05T02:52:15.167Z,74.12
2019-05-05T02:53:18.145Z,74.09
2019-05-05T02:54:24.719Z,74.10
2019-05-05T02:55:28.685Z,74.22
2019-05-05T02:56:39.730Z,74.31
2019-05-05T02:57:43.925Z,74.36
2019-05-05T02:58:49.432Z,74.45
2019-05-05T02:59:57.960Z,74.36
2019-05-05T03:01:04.957Z,74.36
2019-05-05T03:02:10.172Z,74.30
2019-05-05T03:03:13.744Z,74.26
2019-05-05T03:04:18.111Z,74.22
2019-05-05T03:05:23.564Z,74.13
2019-05-05T03:06:27.073Z,74.00
2019-05-05T03:07:31.117Z,73.86
2019-05-05T03:08:36.698Z,73.87
2019-05-05T03:09:41.586Z,73.74
2019-05-05T03:10:45.333Z,73.62
2019-05-05T03:11:50.023Z,73.57
2019-05-05T03:12:54.482Z,73.64
2019-05-05T03:14:00.864Z,73.77
2019-05-05T03:15:05.940Z,73.75
2019-05-05T03:16:14.892Z,73.62
2019-05-05T03:17:19.336Z,73.48
2019-05-05T03:18:24.653Z,73.48
2019-05-05T03:19:28.565Z,73.48
2019-05-05T03:20:33.887Z,73.35
2019-05-05T03:21:37.807Z,73.17
2019-05-05T03:22:43.001Z,73.21
2019-05-05T03:23:46.897Z,73.29
2019-05-05T03:24:50.789Z,73.36
2019-05-05T03:25:54.750Z,73.39
2019-05-05T03:26:58.454Z,73.40
2019-05-05T03:28:02.044Z,73.37
2019-05-05T03:29:10.726Z,73.44
2019-05-05T03:30:15.403Z,73.47
2019-05-05T03:31:19.184Z,73.29
2019-05-05T03:32:25.564Z,73.29
2019-05-05T03:33:28.011Z,73.41
2019-05-05T03:34:31.575Z,73.36
2019-05-05T03:35:35.167Z,73.37
2019-05-05T03:36:38.836Z,73.32
2019-05-05T03:37:44.512Z,73.29
2019-05-05T03:38:47.853Z,73.25
2019-05-05T03:39:53.856Z,73.30
2019-05-05T03:40:58.594Z,73.53
2019-05-05T03:42:13.978Z,73.51
2019-05-05T03:43:28.164Z,73.44
2019-05-05T03:44:33.978Z,73.36
2019-05-05T03:45:41.892Z,73.21
2019-05-05T03:46:45.463Z,73.22
2019-05-05T03:47:49.899Z,73.20
2019-05-05T03:48:54.154Z,73.23
2019-05-05T03:49:57.735Z,73.27
2019-05-05T03:51:15.976Z,73.32
2019-05-05T03:52:06.784Z,73.19
2019-05-05T03:53:11.253Z,73.05
2019-05-05T03:54:15.397Z,72.76
2019-05-05T03:55:19.097Z,72.53
2019-05-05T03:56:24.152Z,72.47
2019-05-05T03:57:27.808Z,72.48
2019-05-05T03:58:32.002Z,72.37
2019-05-05T03:59:36.686Z,72.33
2019-05-05T04:01:10.813Z,72.43
2019-05-05T04:02:18.660Z,72.43
2019-05-05T04:03:23.722Z,72.39
2019-05-05T04:04:33.457Z,72.39
2019-05-05T04:05:38.481Z,72.79
2019-05-05T04:06:42.062Z,72.87
2019-05-05T04:07:46.317Z,72.96
2019-05-05T04:08:49.898Z,72.66
2019-05-05T04:09:54.228Z,72.57
2019-05-05T04:10:57.840Z,72.54
2019-05-05T04:12:01.259Z,72.45
2019-05-05T04:13:04.845Z,72.47
2019-05-05T04:14:09.308Z,72.48
2019-05-05T04:15:14.280Z,72.48
2019-05-05T04:16:19.332Z,72.44
2019-05-05T04:17:24.536Z,72.25
2019-05-05T04:18:29.304Z,72.16
2019-05-05T04:19:49.295Z,72.16
2019-05-05T04:20:53.434Z,72.15
2019-05-05T04:21:57.017Z,72.22
2019-05-05T04:23:00.451Z,72.25
2019-05-05T04:24:04.128Z,72.50
2019-05-05T04:25:07.631Z,72.43
2019-05-05T04:26:11.088Z,72.18
2019-05-05T04:27:14.859Z,72.09
2019-05-05T04:28:18.351Z,72.02
2019-05-05T04:29:21.847Z,72.07
2019-05-05T04:30:25.736Z,72.04
2019-05-05T04:31:29.246Z,71.71
2019-05-05T04:32:34.710Z,71.88
2019-05-05T04:33:37.841Z,72.01
2019-05-05T04:34:41.273Z,72.15
2019-05-05T04:35:44.795Z,72.30
2019-05-05T04:36:48.226Z,72.38
2019-05-05T04:37:51.649Z,72.52
2019-05-05T04:38:55.078Z,72.48
2019-05-05T04:39:58.508Z,72.13
2019-05-05T04:41:03.519Z,72.21
2019-05-05T04:42:07.205Z,72.16
2019-05-05T04:43:10.631Z,72.29
2019-05-05T04:44:14.915Z,72.37
2019-05-05T04:45:19.277Z,72.52
2019-05-05T04:46:24.540Z,72.61
2019-05-05T04:47:35.387Z,72.47
2019-05-05T04:48:43.889Z,72.44
2019-05-05T04:49:49.035Z,72.33
2019-05-05T04:50:54.446Z,72.45
2019-05-05T04:51:59.559Z,72.51
2019-05-05T04:53:04.661Z,72.46
2019-05-05T04:54:15.360Z,72.38
2019-05-05T04:55:18.790Z,72.45
2019-05-05T04:56:23.459Z,72.13
2019-05-05T04:57:27.006Z,72.19
2019-05-05T04:58:30.441Z,72.05
2019-05-05T04:59:34.046Z,72.48
2019-05-05T05:00:37.462Z,72.52
2019-05-05T05:01:41.150Z,72.37
2019-05-05T05:03:04.451Z,72.51
2019-05-05T05:04:13.766Z,72.55
2019-05-05T05:05:21.649Z,72.40
2019-05-05T05:06:26.733Z,72.38
2019-05-05T05:07:30.244Z,72.29
2019-05-05T05:08:33.898Z,72.19
2019-05-05T05:09:39.741Z,71.96
2019-05-05T05:10:43.809Z,72.14
2019-05-05T05:11:47.244Z,72.15
2019-05-05T05:12:50.674Z,72.00
2019-05-05T05:13:54.531Z,71.90
2019-05-05T05:14:58.012Z,71.63
2019-05-05T05:16:01.517Z,71.55
2019-05-05T05:17:06.736Z,71.28
2019-05-05T05:18:16.906Z,71.37
2019-05-05T05:19:20.406Z,71.47
2019-05-05T05:20:24.676Z,71.39
2019-05-05T05:21:28.132Z,71.39
2019-05-05T05:22:33.329Z,71.48
2019-05-05T05:23:36.890Z,71.66
2019-05-05T05:24:40.308Z,71.55
2019-05-05T05:25:43.992Z,71.26
2019-05-05T05:26:47.406Z,71.21
2019-05-05T05:27:50.863Z,71.33
2019-05-05T05:28:54.278Z,71.58
2019-05-05T05:29:57.711Z,71.54
2019-05-05T05:31:01.154Z,71.33
2019-05-05T05:32:04.713Z,71.28
2019-05-05T05:33:08.182Z,71.16
2019-05-05T05:34:11.626Z,71.11
2019-05-05T05:35:15.127Z,71.04
2019-05-05T05:36:18.627Z,71.09
2019-05-05T05:37:23.961Z,71.10
2019-05-05T05:38:27.312Z,71.08
2019-05-05T05:39:34.913Z,71.08
2019-05-05T05:40:45.998Z,71.06
2019-05-05T05:41:49.433Z,71.10
2019-05-05T05:42:54.269Z,71.30
2019-05-05T05:44:03.582Z,71.34
2019-05-05T05:45:25.163Z,71.61
2019-05-05T05:46:44.808Z,71.96
2019-05-05T05:47:55.779Z,71.79
2019-05-05T05:49:17.064Z,71.94
2019-05-05T05:50:24.851Z,72.09
2019-05-05T05:51:28.371Z,71.71
2019-05-05T05:52:31.786Z,71.88
2019-05-05T05:53:35.240Z,71.92
2019-05-05T05:54:38.710Z,71.68
2019-05-05T05:55:42.145Z,71.04
2019-05-05T05:56:45.575Z,70.55
2019-05-05T05:57:49.008Z,70.50
2019-05-05T05:58:54.247Z,70.43
2019-05-05T05:59:57.654Z,70.50
2019-05-05T06:01:01.082Z,70.93
2019-05-05T06:02:11.550Z,70.95
2019-05-05T06:03:09.651Z,70.61
2019-05-05T06:04:14.507Z,70.59
2019-05-05T06:05:17.971Z,70.58
2019-05-05T06:06:21.400Z,70.64
2019-05-05T06:07:24.827Z,70.64
2019-05-05T06:08:29.941Z,70.65
2019-05-05T06:09:34.491Z,70.76
2019-05-05T06:10:38.111Z,70.22
2019-05-05T06:11:43.576Z,70.54
2019-05-05T06:12:46.784Z,70.70
2019-05-05T06:13:50.523Z,71.06
2019-05-05T06:14:54.359Z,71.02
2019-05-05T06:15:57.947Z,70.86
2019-05-05T06:17:01.367Z,70.88
2019-05-05T06:18:05.113Z,70.74
2019-05-05T06:19:10.350Z,70.55
2019-05-05T06:20:15.003Z,70.57
2019-05-05T06:21:18.497Z,70.42
2019-05-05T06:22:29.245Z,70.58
2019-05-05T06:23:27.456Z,70.34
2019-05-05T06:24:34.619Z,70.28
2019-05-05T06:25:38.318Z,70.24
2019-05-05T06:26:44.380Z,70.60
2019-05-05T06:27:47.418Z,70.50
2019-05-05T06:28:50.999Z,70.29
2019-05-05T06:29:54.509Z,70.16
2019-05-05T06:30:58.059Z,70.18
2019-05-05T06:32:01.489Z,70.24
2019-05-05T06:33:05.276Z,70.14
2019-05-05T06:34:09.107Z,70.14
2019-05-05T06:35:13.906Z,70.21
2019-05-05T06:36:17.486Z,70.22
2019-05-05T06:37:21.199Z,70.18
2019-05-05T06:38:24.975Z,70.31
2019-05-05T06:39:28.748Z,70.27
2019-05-05T06:40:39.332Z,70.00
2019-05-05T06:41:59.456Z,70.21
2019-05-05T06:43:23.131Z,70.31
2019-05-05T06:44:27.260Z,70.44
2019-05-05T06:45:44.560Z,70.41
2019-05-05T06:47:07.581Z,70.56
2019-05-05T06:48:11.024Z,70.48
2019-05-05T06:49:15.093Z,70.44
2019-05-05T06:50:19.058Z,70.50
2019-05-05T06:51:24.545Z,70.43
2019-05-05T06:52:41.348Z,70.51
2019-05-05T06:53:34.244Z,70.54
2019-05-05T06:54:37.998Z,70.52
2019-05-05T06:55:41.527Z,70.49
2019-05-05T06:56:45.015Z,70.40
2019-05-05T06:57:48.449Z,70.11
2019-05-05T06:58:53.910Z,69.92
2019-05-05T06:59:57.168Z,69.68
2019-05-05T07:01:00.680Z,69.71
2019-05-05T07:02:04.482Z,69.72
2019-05-05T07:03:07.987Z,69.83
2019-05-05T07:04:11.405Z,69.83
2019-05-05T07:05:14.935Z,70.12
2019-05-05T07:06:18.426Z,70.04
2019-05-05T07:07:23.629Z,69.67
2019-05-05T07:08:27.153Z,69.85
2019-05-05T07:09:30.584Z,70.06
2019-05-05T07:10:34.068Z,70.15
2019-05-05T07:11:37.469Z,70.03
2019-05-05T07:12:40.905Z,69.98
2019-05-05T07:13:44.488Z,69.99
2019-05-05T07:14:47.925Z,69.99
2019-05-05T07:15:51.449Z,70.07
2019-05-05T07:16:54.881Z,69.94
2019-05-05T07:17:58.314Z,70.04
2019-05-05T07:19:01.762Z,69.72
2019-05-05T07:20:06.833Z,69.59
2019-05-05T07:21:10.437Z,69.28
2019-05-05T07:22:14.468Z,69.13
2019-05-05T07:23:19.076Z,69.11
2019-05-05T07:24:23.875Z,69.20
2019-05-05T07:25:39.877Z,69.35
2019-05-05T07:26:34.072Z,69.39
2019-05-05T07:27:37.527Z,69.33
2019-05-05T07:28:40.958Z,69.03
2019-05-05T07:29:44.421Z,69.11
2019-05-05T07:30:47.865Z,69.21
2019-05-05T07:31:51.274Z,69.20
2019-05-05T07:32:55.171Z,69.04
2019-05-05T07:33:58.673Z,69.20
2019-05-05T07:35:15.858Z,69.26
2019-05-05T07:36:34.078Z,69.38
2019-05-05T07:37:37.593Z,69.15
2019-05-05T07:38:41.021Z,68.85
2019-05-05T07:39:44.708Z,68.94
2019-05-05T07:40:48.159Z,69.22
2019-05-05T07:41:53.978Z,69.35
2019-05-05T07:42:56.831Z,69.19
2019-05-05T07:44:00.266Z,69.07
2019-05-05T07:45:19.298Z,68.96
2019-05-05T07:46:10.999Z,68.86
2019-05-05T07:47:14.636Z,68.98
2019-05-05T07:48:18.077Z,69.15
2019-05-05T07:49:21.503Z,68.89
2019-05-05T07:50:32.018Z,68.68
2019-05-05T07:51:30.101Z,68.54
2019-05-05T07:52:34.405Z,68.40
2019-05-05T07:53:37.958Z,68.40
2019-05-05T07:54:43.514Z,68.33
2019-05-05T07:55:46.543Z,68.11
2019-05-05T07:56:49.976Z,67.74
2019-05-05T07:57:53.877Z,67.76
2019-05-05T07:58:57.414Z,67.62
2019-05-05T08:00:00.932Z,67.52
2019-05-05T08:01:04.737Z,67.60
2019-05-05T08:02:08.291Z,67.54
2019-05-05T08:03:11.740Z,67.54
2019-05-05T08:04:15.265Z,67.67
2019-05-05T08:05:18.781Z,68.01
2019-05-05T08:06:23.693Z,67.68
2019-05-05T08:07:27.190Z,67.36
2019-05-05T08:08:30.737Z,67.27
2019-05-05T08:09:34.196Z,67.13
2019-05-05T08:10:37.626Z,67.12
2019-05-05T08:11:41.054Z,67.34
2019-05-05T08:12:44.503Z,67.23
2019-05-05T08:13:47.949Z,67.12
2019-05-05T08:14:53.594Z,66.51
2019-05-05T08:16:00.075Z,66.51
2019-05-05T08:17:05.117Z,66.83
2019-05-05T08:18:19.250Z,66.60
2019-05-05T08:19:30.198Z,66.79
2019-05-05T08:20:41.258Z,66.53
2019-05-05T08:21:44.746Z,66.77
2019-05-05T08:22:48.258Z,66.78
2019-05-05T08:23:56.384Z,66.71
2019-05-05T08:25:04.299Z,66.26
2019-05-05T08:26:09.419Z,66.39
2019-05-05T08:27:17.273Z,66.66
2019-05-05T08:28:24.918Z,66.41
2019-05-05T08:29:30.107Z,66.47
2019-05-05T08:30:35.285Z,66.46
2019-05-05T08:31:44.280Z,66.44
2019-05-05T08:32:49.454Z,66.50
2019-05-05T08:33:54.685Z,66.47
2019-05-05T08:35:00.906Z,66.09
2019-05-05T08:36:04.554Z,66.21
2019-05-05T08:37:08.408Z,65.98
2019-05-05T08:38:13.819Z,64.70
2019-05-05T08:39:17.131Z,64.33
2019-05-05T08:40:20.743Z,64.58
2019-05-05T08:41:24.470Z,64.60
2019-05-05T08:42:27.884Z,64.69
2019-05-05T08:43:31.320Z,64.47
2019-05-05T08:44:34.823Z,64.75
2019-05-05T08:45:38.416Z,64.96
2019-05-05T08:46:41.846Z,64.81
2019-05-05T08:47:45.356Z,64.84
2019-05-05T08:48:48.851Z,64.74
2019-05-05T08:49:53.760Z,64.74
2019-05-05T08:50:57.398Z,64.70
2019-05-05T08:52:00.845Z,64.59
2019-05-05T08:53:08.024Z,64.45
2019-05-05T08:54:09.746Z,64.52
2019-05-05T08:55:13.937Z,64.71
2019-05-05T08:56:17.503Z,64.61
2019-05-05T08:57:21.003Z,64.67
2019-05-05T08:58:24.520Z,64.67
2019-05-05T08:59:28.024Z,64.77
2019-05-05T09:00:33.647Z,64.89
2019-05-05T09:01:36.627Z,63.74
2019-05-05T09:02:40.082Z,63.89
2019-05-05T09:03:44.281Z,63.33
2019-05-05T09:04:48.048Z,63.48
2019-05-05T09:05:51.477Z,63.55
2019-05-05T09:06:55.009Z,63.68
2019-05-05T09:07:58.434Z,63.05
2019-05-05T09:09:03.841Z,62.78
2019-05-05T09:10:07.266Z,62.93
2019-05-05T09:11:10.779Z,63.09
2019-05-05T09:12:14.299Z,62.87
2019-05-05T09:13:17.730Z,62.87
2019-05-05T09:14:21.244Z,62.84
2019-05-05T09:15:24.745Z,62.96
2019-05-05T09:16:28.182Z,62.99
2019-05-05T09:17:33.258Z,62.60
2019-05-05T09:18:38.585Z,62.67
2019-05-05T09:19:42.016Z,62.79
2019-05-05T09:20:45.438Z,63.09
2019-05-05T09:21:48.948Z,62.22
2019-05-05T09:22:53.577Z,62.38
2019-05-05T09:24:02.404Z,62.48
2019-05-05T09:25:09.646Z,62.94
2019-05-05T09:26:17.382Z,62.35
2019-05-05T09:27:34.037Z,62.24
2019-05-05T09:28:47.967Z,61.77
2019-05-05T09:29:51.410Z,61.43
2019-05-05T09:30:54.918Z,61.90
2019-05-05T09:31:58.436Z,62.29
2019-05-05T09:33:03.587Z,61.98
2019-05-05T09:34:07.061Z,60.72
2019-05-05T09:35:10.726Z,60.38
2019-05-05T09:36:14.293Z,60.02
2019-05-05T09:37:17.805Z,59.91
2019-05-05T09:38:21.332Z,59.76
2019-05-05T09:39:24.912Z,60.35
2019-05-05T09:40:39.782Z,60.38
2019-05-05T09:41:44.604Z,59.71
2019-05-05T09:42:48.120Z,59.33
2019-05-05T09:43:53.776Z,59.64
2019-05-05T09:44:56.806Z,60.24
2019-05-05T09:46:00.302Z,59.99
2019-05-05T09:47:04.711Z,59.97
2019-05-05T09:48:08.655Z,58.67
2019-05-05T09:49:14.095Z,58.49
2019-05-05T09:50:17.425Z,59.08
2019-05-05T09:51:20.939Z,59.30
2019-05-05T09:52:24.523Z,59.71
2019-05-05T09:53:28.005Z,59.70
2019-05-05T09:54:31.450Z,59.04
2019-05-05T09:55:35.007Z,58.50
2019-05-05T09:56:38.527Z,58.46
2019-05-05T09:57:43.790Z,58.60
2019-05-05T09:58:47.149Z,58.57
2019-05-05T09:59:50.722Z,58.41
2019-05-05T10:00:54.756Z,58.62
2019-05-05T10:01:58.236Z,59.03
2019-05-05T10:03:03.695Z,59.20
2019-05-05T10:04:10.830Z,59.09
2019-05-05T10:05:14.747Z,59.01
2019-05-05T10:06:18.204Z,59.13
2019-05-05T10:07:21.711Z,59.20
2019-05-05T10:08:27.011Z,59.06
2019-05-05T10:09:30.471Z,58.79
2019-05-05T10:10:33.915Z,59.10
2019-05-05T10:11:37.979Z,58.95
2019-05-05T10:12:41.484Z,59.49
2019-05-05T10:13:45.000Z,59.68
2019-05-05T10:14:48.451Z,59.68
2019-05-05T10:15:51.921Z,60.04
2019-05-05T10:16:55.486Z,58.60
2019-05-05T10:17:58.992Z,58.60
2019-05-05T10:19:04.423Z,58.69
2019-05-05T10:20:08.071Z,58.43
2019-05-05T10:21:13.753Z,58.43
2019-05-05T10:22:16.650Z,58.04
2019-05-05T10:23:20.147Z,58.45
2019-05-05T10:24:30.992Z,58.06
2019-05-05T10:25:35.162Z,58.10
2019-05-05T10:26:38.622Z,58.22
2019-05-05T10:27:47.376Z,58.23
2019-05-05T10:28:47.411Z,58.61
2019-05-05T10:29:50.843Z,58.83
2019-05-05T10:30:54.436Z,58.10
2019-05-05T10:31:58.026Z,57.21
2019-05-05T10:33:03.614Z,57.21
2019-05-05T10:34:11.276Z,57.17
2019-05-05T10:35:14.865Z,56.22
2019-05-05T10:36:18.522Z,56.22
2019-05-05T10:37:23.506Z,56.68
2019-05-05T10:38:26.965Z,56.63
2019-05-05T10:39:37.949Z,55.76
2019-05-05T10:40:41.441Z,55.09
2019-05-05T10:41:44.978Z,55.02
2019-05-05T10:42:51.198Z,55.02
2019-05-05T10:43:54.685Z,55.00
2019-05-05T10:44:58.117Z,54.90
2019-05-05T10:46:03.710Z,54.48
2019-05-05T10:47:06.808Z,54.48
2019-05-05T10:48:10.300Z,53.25
2019-05-05T10:49:13.813Z,53.28
2019-05-05T10:50:17.328Z,53.66
2019-05-05T10:51:20.790Z,53.47
2019-05-05T10:52:24.220Z,53.13
2019-05-05T10:53:27.666Z,53.13
2019-05-05T10:54:43.171Z,53.01
2019-05-05T10:55:36.400Z,53.82
2019-05-05T10:56:39.924Z,53.82
2019-05-05T10:57:43.710Z,53.82
2019-05-05T10:58:47.171Z,53.69
2019-05-05T10:59:50.599Z,53.65
2019-05-05T11:00:55.811Z,53.65
2019-05-05T11:01:59.405Z,53.67
2019-05-05T11:03:04.014Z,53.95
2019-05-05T11:04:07.484Z,53.95
2019-05-05T11:05:11.559Z,53.99
2019-05-05T11:06:15.118Z,54.29
2019-05-05T11:07:18.709Z,54.14
2019-05-05T11:08:24.028Z,54.14
2019-05-05T11:09:27.664Z,55.59
2019-05-05T11:10:33.961Z,55.59
2019-05-05T11:11:37.595Z,55.28
2019-05-05T11:12:41.046Z,54.69
2019-05-05T11:13:46.394Z,54.90
2019-05-05T11:14:49.942Z,54.90
2019-05-05T11:15:54.664Z,55.52
2019-05-05T11:16:58.496Z,55.52
2019-05-05T11:18:04.009Z,55.42
2019-05-05T11:19:07.648Z,55.46
2019-05-05T11:20:14.360Z,55.46
2019-05-05T11:21:17.992Z,56.42
2019-05-05T11:22:21.503Z,56.42
2019-05-05T11:23:25.122Z,56.63
2019-05-05T11:24:28.513Z,57.13
2019-05-05T11:25:33.738Z,57.49
2019-05-05T11:26:37.220Z,58.17
2019-05-05T11:27:40.808Z,58.85
2019-05-05T11:28:44.657Z,59.27
2019-05-05T11:30:06.038Z,59.97
2019-05-05T11:31:09.471Z,61.00
2019-05-05T11:32:15.281Z,61.52
2019-05-05T11:33:29.058Z,62.42
2019-05-05T11:34:33.794Z,62.51
2019-05-05T11:35:54.448Z,62.70
2019-05-05T11:37:11.045Z,63.25
2019-05-05T11:38:14.583Z,64.15
2019-05-05T11:39:18.030Z,64.24
2019-05-05T11:40:32.992Z,64.53
2019-05-05T11:41:36.515Z,64.77
2019-05-05T11:42:39.976Z,65.29
2019-05-05T11:43:43.512Z,65.78
2019-05-05T11:44:47.562Z,66.01
2019-05-05T11:45:51.055Z,66.06
2019-05-05T11:46:54.839Z,66.47
2019-05-05T11:47:58.445Z,66.95
2019-05-05T11:49:01.913Z,67.22
2019-05-05T11:50:06.192Z,67.70
2019-05-05T11:51:09.704Z,68.22
2019-05-05T11:52:13.163Z,68.70
2019-05-05T11:53:16.651Z,68.78
2019-05-05T11:54:20.247Z,67.96
2019-05-05T11:55:24.876Z,67.25
2019-05-05T11:56:28.376Z,67.04
2019-05-05T11:57:31.909Z,67.48
2019-05-05T11:58:35.448Z,67.14
2019-05-05T11:59:40.599Z,66.80
2019-05-05T12:00:44.147Z,66.72
2019-05-05T12:01:47.723Z,66.43
2019-05-05T12:02:51.234Z,65.98
2019-05-05T12:03:54.772Z,65.88
2019-05-05T12:04:58.222Z,65.45
2019-05-05T12:06:03.784Z,65.46
2019-05-05T12:07:06.969Z,65.24
2019-05-05T12:08:10.580Z,65.11
2019-05-05T12:09:18.165Z,65.23
2019-05-05T12:10:23.697Z,64.50
2019-05-05T12:11:27.207Z,64.50
2019-05-05T12:12:30.648Z,64.19
2019-05-05T12:13:34.238Z,64.06
2019-05-05T12:14:37.770Z,63.34
2019-05-05T12:15:44.620Z,63.38
2019-05-05T12:16:48.192Z,63.01
2019-05-05T12:17:51.757Z,63.01
2019-05-05T12:18:55.274Z,61.73
2019-05-05T12:19:58.725Z,61.22
2019-05-05T12:21:02.227Z,61.29
2019-05-05T12:22:05.744Z,61.03
2019-05-05T12:23:09.339Z,60.09
2019-05-05T12:24:14.455Z,59.75
2019-05-05T12:25:35.699Z,59.86
2019-05-05T12:26:40.842Z,59.43
2019-05-05T12:28:00.486Z,59.43
2019-05-05T12:29:05.927Z,60.01
2019-05-05T12:30:09.886Z,58.47
2019-05-05T12:31:24.753Z,58.47
2019-05-05T12:32:28.330Z,59.13
2019-05-05T12:33:33.633Z,59.65
2019-05-05T12:34:37.148Z,59.30
2019-05-05T12:35:40.678Z,59.40
2019-05-05T12:36:44.632Z,59.03
2019-05-05T12:37:48.116Z,59.17
2019-05-05T12:38:51.647Z,58.26
2019-05-05T12:39:55.155Z,58.52
2019-05-05T12:40:58.689Z,57.92
2019-05-05T12:42:04.613Z,57.92
2019-05-05T12:43:07.342Z,57.84
2019-05-05T12:44:14.281Z,58.13
2019-05-05T12:45:19.705Z,58.27
2019-05-05T12:46:30.887Z,58.14
2019-05-05T12:47:36.109Z,58.20
2019-05-05T12:48:43.703Z,58.10
2019-05-05T12:49:46.703Z,58.10
2019-05-05T12:50:50.137Z,58.19
2019-05-05T12:51:54.149Z,58.19
2019-05-05T12:52:57.604Z,58.55
2019-05-05T12:54:01.108Z,59.08
2019-05-05T12:55:05.985Z,59.08
2019-05-05T12:56:09.578Z,58.77
2019-05-05T12:57:13.744Z,59.33
2019-05-05T12:58:17.183Z,59.36
2019-05-05T12:59:22.275Z,59.36
2019-05-05T13:00:26.012Z,58.89
2019-05-05T13:01:34.243Z,57.99
2019-05-05T13:02:37.767Z,58.56
2019-05-05T13:03:43.600Z,57.66
2019-05-05T13:04:46.525Z,57.66
2019-05-05T13:05:50.057Z,57.41
2019-05-05T13:06:54.155Z,58.12
2019-05-05T13:07:57.629Z,58.12
2019-05-05T13:09:01.188Z,58.52
2019-05-05T13:10:06.912Z,58.39
2019-05-05T13:11:10.507Z,58.33
2019-05-05T13:12:14.989Z,57.96
2019-05-05T13:13:18.778Z,58.38
2019-05-05T13:14:22.450Z,58.04
2019-05-05T13:15:26.237Z,57.79
2019-05-05T13:16:29.866Z,57.54
2019-05-05T13:17:33.961Z,57.29
2019-05-05T13:18:37.428Z,56.56
2019-05-05T13:19:45.387Z,55.69
2019-05-05T13:20:56.547Z,55.57
2019-05-05T13:22:13.514Z,56.05
2019-05-05T13:23:24.785Z,56.27
2019-05-05T13:24:29.936Z,56.75
2019-05-05T13:25:35.023Z,55.60
2019-05-05T13:26:40.112Z,56.38
2019-05-05T13:27:45.344Z,57.12
2019-05-05T13:28:48.911Z,57.77
2019-05-05T13:29:53.610Z,57.89
2019-05-05T13:30:57.186Z,58.64
2019-05-05T13:32:00.641Z,58.80
2019-05-05T13:33:04.232Z,58.86
2019-05-05T13:34:07.812Z,59.08
2019-05-05T13:35:11.489Z,59.63
2019-05-05T13:36:14.933Z,59.17
2019-05-05T13:37:18.524Z,59.46
2019-05-05T13:38:23.931Z,60.25
2019-05-05T13:39:27.261Z,61.51
2019-05-05T13:40:30.873Z,62.78
2019-05-05T13:41:34.324Z,64.87
2019-05-05T13:42:37.804Z,64.87
2019-05-05T13:43:41.315Z,65.28
2019-05-05T13:44:49.448Z,65.83
2019-05-05T13:46:14.012Z,66.17
2019-05-05T13:47:17.740Z,66.24
2019-05-05T13:48:21.190Z,67.20
2019-05-05T13:49:29.100Z,67.76
2019-05-05T13:50:37.301Z,67.76
2019-05-05T13:51:40.746Z,68.01
2019-05-05T13:52:44.300Z,68.03
2019-05-05T13:53:47.841Z,68.15
2019-05-05T13:54:51.263Z,68.33
2019-05-05T13:56:08.182Z,69.01
2019-05-05T13:57:00.147Z,69.31
2019-05-05T13:58:03.991Z,69.42
2019-05-05T13:59:07.612Z,68.99